Time;durP1;ratioP1;P1;durP2;ratioP2;P2;SDS_P1;SDS_P2;PMS_P1;PMS_P2;Temp;Humidity;BMP_temperature;BMP_pressure;BME280_temperature;BME280_humidity;BME280_pressure;Samples;Min_cycle;Max_cycle;Signal;HPM_P1;HPM_P2
2023/03/19 00:01:05;;;;;;;9.03;3.27;;;;;;;;;;4973868;28;20518;-31
2023/03/19 00:03:32;;;;;;;4.43;3.20;;;;;;;;;;4990953;28;20207;-36
2023/03/19 00:05:59;;;;;;;4.27;3.57;;;;;;;;;;4991628;28;20208;-33
2023/03/19 00:08:27;;;;;;;3.43;3.10;;;;;;;;;;4988059;28;20220;-36
2023/03/19 00:10:54;;;;;;;5.73;3.40;;;;;;;;;;4984026;28;20207;-36
2023/03/19 00:13:21;;;;;;;6.00;3.13;;;;;;;;;;4989062;28;20268;-33
2023/03/19 00:15:55;;;;;;;4.67;3.00;;;;;;;;;;4985753;28;20224;-30
2023/03/19 00:18:24;;;;;;;6.63;3.33;;;;;;;;;;4977445;28;20679;-30
2023/03/19 00:20:51;;;;;;;5.03;3.33;;;;;;;;;;4993197;28;20208;-33
2023/03/19 00:23:18;;;;;;;4.63;3.27;;;;;;;;;;4988402;28;20211;-38
2023/03/19 00:25:45;;;;;;;4.70;3.10;;;;;;;;;;4979966;28;20211;-34
2023/03/19 00:28:12;;;;;;;4.57;3.17;;;;;;;;;;4987637;28;20235;-37
2023/03/19 00:30:39;;;;;;;3.93;3.17;;;;;;;;;;4976107;28;20208;-34
2023/03/19 00:33:06;;;;;;;5.80;3.17;;;;;;;;;;4988007;28;20203;-38
2023/03/19 00:35:35;;;;;;;3.70;2.90;;;;;;;;;;4989668;28;20211;-31
2023/03/19 00:38:02;;;;;;;3.90;3.03;;;;;;;;;;4981765;28;20243;-40
2023/03/19 00:40:29;;;;;;;3.80;3.30;;;;;;;;;;4985031;28;20218;-36
2023/03/19 00:42:56;;;;;;;3.40;3.10;;;;;;;;;;4989440;28;20208;-32
2023/03/19 00:45:23;;;;;;;5.57;3.60;;;;;;;;;;4971001;28;20213;-33
2023/03/19 00:47:51;;;;;;;5.60;3.37;;;;;;;;;;4988767;28;20318;-34
2023/03/19 00:50:18;;;;;;;4.17;3.20;;;;;;;;;;4989493;28;20240;-34
2023/03/19 00:52:46;;;;;;;6.23;3.37;;;;;;;;;;4990583;28;20208;-35
2023/03/19 00:55:13;;;;;;;5.47;3.20;;;;;;;;;;4977871;28;20200;-34
2023/03/19 00:57:40;;;;;;;4.30;3.03;;;;;;;;;;4988547;28;20232;-40
2023/03/19 01:00:09;;;;;;;3.87;3.37;;;;;;;;;;4979368;28;20219;-35
2023/03/19 01:02:36;;;;;;;6.47;3.53;;;;;;;;;;4983146;28;20223;-32
2023/03/19 01:05:03;;;;;;;4.27;2.90;;;;;;;;;;4989264;28;20206;-32
2023/03/19 01:07:31;;;;;;;7.23;3.47;;;;;;;;;;4983690;28;20232;-31
2023/03/19 01:09:59;;;;;;;3.20;2.90;;;;;;;;;;4987327;28;20204;-38
2023/03/19 01:12:26;;;;;;;4.30;3.10;;;;;;;;;;4990021;28;20212;-32
2023/03/19 01:14:54;;;;;;;5.83;3.30;;;;;;;;;;4980942;28;20218;-34
2023/03/19 01:17:21;;;;;;;5.00;2.97;;;;;;;;;;4987337;28;20262;-39
2023/03/19 01:19:49;;;;;;;7.23;2.80;;;;;;;;;;4988950;28;20260;-31
2023/03/19 01:22:16;;;;;;;4.23;2.90;;;;;;;;;;4985371;28;20249;-36
2023/03/19 01:24:44;;;;;;;3.93;2.77;;;;;;;;;;4978799;28;20212;-33
2023/03/19 01:27:12;;;;;;;4.33;3.03;;;;;;;;;;4988467;28;20224;-37
2023/03/19 01:29:39;;;;;;;2.90;2.60;;;;;;;;;;4983584;28;20219;-33
2023/03/19 01:32:07;;;;;;;3.40;2.57;;;;;;;;;;4981156;28;20274;-36
2023/03/19 01:34:34;;;;;;;3.73;2.90;;;;;;;;;;4988263;28;20212;-32
2023/03/19 01:39:30;;;;;;;4.77;3.00;;;;;;;;;;5016738;28;20219;-34
2023/03/19 01:42:01;;;;;;;3.13;2.83;;;;;;;;;;5015488;28;20196;-32
2023/03/19 01:44:31;;;;;;;5.30;3.37;;;;;;;;;;5006654;28;20230;-36
2023/03/19 01:46:59;;;;;;;3.43;2.80;;;;;;;;;;5025703;28;20234;-35
2023/03/19 01:49:27;;;;;;;6.93;3.17;;;;;;;;;;5022052;28;20205;-38
2023/03/19 01:51:54;;;;;;;7.63;2.87;;;;;;;;;;5023947;28;20203;-31
2023/03/19 01:54:22;;;;;;;5.40;3.67;;;;;;;;;;5026622;28;20293;-30
2023/03/19 01:56:52;;;;;;;6.70;3.53;;;;;;;;;;5030357;28;20226;-38
2023/03/19 01:59:21;;;;;;;3.87;3.17;;;;;;;;;;5014961;28;20227;-33
2023/03/19 02:02:08;;;;;;;3.77;3.10;;;;;;;;;;5016704;28;20209;-38
2023/03/19 02:04:37;;;;;;;4.37;3.53;;;;;;;;;;5018809;28;20209;-33
2023/03/19 02:07:04;;;;;;;7.70;3.80;;;;;;;;;;5026882;28;20230;-32
2023/03/19 02:09:32;;;;;;;5.60;3.67;;;;;;;;;;5011927;28;20202;-34
2023/03/19 02:12:00;;;;;;;5.13;3.17;;;;;;;;;;5014691;28;20210;-34
2023/03/19 02:14:27;;;;;;;7.60;4.07;;;;;;;;;;5008507;28;20262;-39
2023/03/19 02:16:55;;;;;;;4.83;2.93;;;;;;;;;;5017676;28;20235;-35
2023/03/19 02:19:27;;;;;;;5.27;3.47;;;;;;;;;;5022263;28;20219;-33
2023/03/19 02:21:54;;;;;;;5.40;3.50;;;;;;;;;;5010688;28;20202;-32
2023/03/19 02:24:24;;;;;;;5.80;3.37;;;;;;;;;;5012035;28;20203;-36
2023/03/19 02:26:52;;;;;;;5.53;3.83;;;;;;;;;;5012325;28;20214;-36
2023/03/19 02:29:19;;;;;;;4.93;3.43;;;;;;;;;;5020876;28;20202;-38
2023/03/19 02:31:47;;;;;;;4.97;3.90;;;;;;;;;;5025798;28;20285;-37
2023/03/19 02:34:29;;;;;;;3.77;3.40;;;;;;;;;;5019862;28;20208;-34
2023/03/19 02:36:58;;;;;;;5.57;3.13;;;;;;;;;;5020615;28;20226;-35
2023/03/19 02:39:27;;;;;;;4.23;3.70;;;;;;;;;;5023681;28;20261;-33
2023/03/19 02:41:57;;;;;;;7.13;3.77;;;;;;;;;;5008142;28;20211;-35
2023/03/19 02:44:25;;;;;;;8.33;3.70;;;;;;;;;;5014719;28;20218;-36
2023/03/19 02:46:52;;;;;;;4.67;3.37;;;;;;;;;;5022247;28;20229;-39
2023/03/19 02:49:19;;;;;;;5.43;3.67;;;;;;;;;;5006303;28;20203;-36
2023/03/19 02:51:46;;;;;;;5.30;3.40;;;;;;;;;;5006879;28;20211;-33
2023/03/19 02:54:13;;;;;;;4.67;3.60;;;;;;;;;;5016064;28;20219;-36
2023/03/19 02:56:40;;;;;;;6.23;3.43;;;;;;;;;;5018971;28;20222;-32
2023/03/19 02:59:09;;;;;;;3.83;3.27;;;;;;;;;;5009581;28;20291;-33
2023/03/19 03:01:36;;;;;;;4.60;3.47;;;;;;;;;;5026865;28;20365;-32
2023/03/19 03:04:03;;;;;;;5.13;3.20;;;;;;;;;;5015044;28;20209;-32
2023/03/19 03:06:31;;;;;;;5.27;3.60;;;;;;;;;;5030392;28;20329;-33
2023/03/19 03:08:58;;;;;;;4.07;3.57;;;;;;;;;;5024887;28;20202;-38
2023/03/19 03:11:25;;;;;;;7.87;3.70;;;;;;;;;;5017108;28;20571;-31
2023/03/19 03:13:53;;;;;;;7.17;3.30;;;;;;;;;;5010600;28;20211;-34
2023/03/19 03:16:21;;;;;;;4.07;3.23;;;;;;;;;;5031401;28;20241;-33
2023/03/19 03:18:48;;;;;;;5.50;3.77;;;;;;;;;;5029348;28;20291;-37
2023/03/19 03:21:20;;;;;;;4.97;3.83;;;;;;;;;;5014375;28;20238;-35
2023/03/19 03:23:47;;;;;;;3.77;3.23;;;;;;;;;;5010800;28;20210;-30
2023/03/19 03:26:14;;;;;;;8.70;3.60;;;;;;;;;;5024226;28;20245;-32
2023/03/19 03:28:42;;;;;;;5.53;3.20;;;;;;;;;;5017162;28;20199;-38
2023/03/19 03:31:09;;;;;;;5.10;3.57;;;;;;;;;;5017582;28;20264;-36
2023/03/19 03:33:38;;;;;;;6.77;3.60;;;;;;;;;;5012002;28;20219;-35
2023/03/19 03:36:12;;;;;;;6.17;3.87;;;;;;;;;;5013720;28;20210;-36
2023/03/19 03:38:39;;;;;;;3.63;3.07;;;;;;;;;;5013238;28;20233;-35
2023/03/19 03:41:11;;;;;;;6.63;3.67;;;;;;;;;;5014485;28;20199;-34
2023/03/19 03:43:38;;;;;;;6.97;3.63;;;;;;;;;;5009370;28;20211;-35
2023/03/19 03:46:06;;;;;;;8.20;3.87;;;;;;;;;;5015062;28;20207;-37
2023/03/19 03:48:33;;;;;;;7.03;3.63;;;;;;;;;;5028244;28;20270;-34
2023/03/19 03:51:03;;;;;;;7.37;4.20;;;;;;;;;;5029919;28;20297;-33
2023/03/19 03:53:30;;;;;;;5.20;3.70;;;;;;;;;;5023930;28;20207;-34
2023/03/19 03:55:57;;;;;;;8.37;4.30;;;;;;;;;;5020952;28;20289;-35
2023/03/19 03:58:24;;;;;;;7.00;4.50;;;;;;;;;;5027640;28;20236;-36
2023/03/19 04:00:53;;;;;;;9.03;4.50;;;;;;;;;;5022835;28;20274;-33
2023/03/19 04:03:21;;;;;;;6.10;4.13;;;;;;;;;;5021486;28;20212;-36
2023/03/19 04:05:48;;;;;;;5.33;4.23;;;;;;;;;;5009709;28;20298;-37
2023/03/19 04:08:17;;;;;;;5.03;4.03;;;;;;;;;;5011295;28;20230;-33
2023/03/19 04:10:44;;;;;;;5.43;4.10;;;;;;;;;;5019297;28;20211;-32
2023/03/19 04:13:12;;;;;;;7.37;4.10;;;;;;;;;;5028954;28;20207;-35
2023/03/19 04:15:39;;;;;;;6.63;4.27;;;;;;;;;;5012090;28;20207;-30
2023/03/19 04:18:06;;;;;;;5.00;4.10;;;;;;;;;;5029864;28;20344;-32
2023/03/19 04:20:34;;;;;;;6.43;3.83;;;;;;;;;;5011956;28;20210;-31
2023/03/19 04:23:02;;;;;;;8.03;4.50;;;;;;;;;;5015793;28;20262;-32
2023/03/19 04:25:30;;;;;;;5.83;3.90;;;;;;;;;;5013089;28;20211;-35
2023/03/19 04:27:57;;;;;;;7.80;4.17;;;;;;;;;;5016203;28;20262;-32
2023/03/19 04:30:25;;;;;;;6.90;4.03;;;;;;;;;;5007787;28;20211;-35
2023/03/19 04:32:52;;;;;;;7.57;4.40;;;;;;;;;;5014862;28;20212;-36
2023/03/19 04:35:20;;;;;;;6.30;4.60;;;;;;;;;;5013693;28;20207;-35
2023/03/19 04:37:47;;;;;;;8.13;4.20;;;;;;;;;;5024321;28;20239;-35
2023/03/19 04:40:15;;;;;;;7.13;4.73;;;;;;;;;;5015712;28;20227;-36
2023/03/19 04:42:44;;;;;;;6.30;4.67;;;;;;;;;;5016588;28;20221;-31
2023/03/19 04:45:11;;;;;;;5.97;3.83;;;;;;;;;;5011144;28;20212;-31
2023/03/19 04:47:39;;;;;;;6.43;3.93;;;;;;;;;;5024869;28;20230;-33
2023/03/19 04:50:08;;;;;;;6.80;3.90;;;;;;;;;;5008524;28;20207;-32
2023/03/19 04:52:36;;;;;;;7.90;4.70;;;;;;;;;;5008204;28;20213;-37
2023/03/19 04:55:03;;;;;;;5.07;4.33;;;;;;;;;;5028022;28;20289;-33
2023/03/19 04:57:30;;;;;;;5.50;4.47;;;;;;;;;;5015600;28;20234;-35
2023/03/19 04:59:58;;;;;;;8.00;4.40;;;;;;;;;;5014835;28;20250;-34
2023/03/19 05:02:26;;;;;;;6.60;3.73;;;;;;;;;;5011982;28;20278;-31
2023/03/19 05:04:53;;;;;;;7.03;4.50;;;;;;;;;;5008648;28;20207;-36
2023/03/19 05:07:20;;;;;;;6.70;4.23;;;;;;;;;;5021722;28;20257;-38
2023/03/19 05:09:47;;;;;;;5.70;5.00;;;;;;;;;;5013422;28;20511;-37
2023/03/19 05:12:15;;;;;;;6.47;4.50;;;;;;;;;;5026355;28;20232;-32
2023/03/19 05:14:42;;;;;;;5.17;4.03;;;;;;;;;;5017371;28;20215;-36
2023/03/19 05:17:11;;;;;;;5.73;3.93;;;;;;;;;;5012500;28;20223;-31
2023/03/19 05:19:39;;;;;;;5.10;4.60;;;;;;;;;;5016548;28;20233;-34
2023/03/19 05:22:06;;;;;;;6.63;4.83;;;;;;;;;;5009653;28;20203;-41
2023/03/19 05:24:33;;;;;;;5.53;4.47;;;;;;;;;;5007889;28;20207;-34
2023/03/19 05:27:00;;;;;;;5.73;4.37;;;;;;;;;;5016602;28;20222;-34
2023/03/19 05:29:27;;;;;;;6.57;4.30;;;;;;;;;;5018001;28;20202;-31
2023/03/19 05:31:54;;;;;;;7.43;4.40;;;;;;;;;;5021313;28;20360;-29
2023/03/19 05:34:23;;;;;;;4.57;4.17;;;;;;;;;;5019918;28;20207;-31
2023/03/19 05:36:50;;;;;;;5.90;4.13;;;;;;;;;;5008704;28;20289;-33
2023/03/19 05:39:18;;;;;;;6.57;4.63;;;;;;;;;;5011742;28;20237;-31
2023/03/19 05:41:45;;;;;;;5.10;4.33;;;;;;;;;;5019237;28;20231;-31
2023/03/19 05:44:12;;;;;;;6.07;4.70;;;;;;;;;;5022798;28;20203;-35
2023/03/19 05:46:40;;;;;;;6.67;4.80;;;;;;;;;;5023221;28;20222;-32
2023/03/19 05:49:08;;;;;;;9.13;4.53;;;;;;;;;;5007733;28;20199;-33
2023/03/19 05:51:37;;;;;;;7.43;4.90;;;;;;;;;;5008806;28;20261;-30
2023/03/19 05:54:04;;;;;;;7.53;4.23;;;;;;;;;;5009926;28;20231;-35
2023/03/19 05:56:31;;;;;;;6.17;4.30;;;;;;;;;;5020694;28;20313;-35
2023/03/19 05:58:58;;;;;;;5.17;4.37;;;;;;;;;;5023167;28;20218;-37
2023/03/19 06:01:26;;;;;;;5.40;4.33;;;;;;;;;;5025559;28;20206;-34
2023/03/19 06:03:53;;;;;;;5.27;4.10;;;;;;;;;;5020448;28;20199;-37
2023/03/19 06:06:20;;;;;;;6.97;4.40;;;;;;;;;;5031344;28;20217;-32
2023/03/19 06:08:48;;;;;;;6.20;4.63;;;;;;;;;;5027011;28;20323;-32
2023/03/19 06:11:15;;;;;;;5.70;4.03;;;;;;;;;;5012698;28;20207;-33
2023/03/19 06:13:43;;;;;;;5.20;4.70;;;;;;;;;;5010578;28;20225;-31
2023/03/19 06:16:10;;;;;;;6.07;4.53;;;;;;;;;;5019434;28;20230;-36
2023/03/19 06:18:37;;;;;;;6.77;4.77;;;;;;;;;;5016265;28;20242;-29
2023/03/19 06:21:05;;;;;;;5.97;4.83;;;;;;;;;;5033159;28;20195;-35
2023/03/19 06:23:32;;;;;;;5.47;4.20;;;;;;;;;;5018892;28;20210;-32
2023/03/19 06:26:00;;;;;;;5.87;4.57;;;;;;;;;;5019985;28;20216;-36
2023/03/19 06:28:28;;;;;;;5.13;4.43;;;;;;;;;;5010118;28;20220;-35
2023/03/19 06:30:55;;;;;;;5.87;4.87;;;;;;;;;;5025808;28;20215;-33
2023/03/19 06:33:26;;;;;;;7.07;4.50;;;;;;;;;;5030312;28;20206;-34
2023/03/19 06:35:53;;;;;;;4.53;4.10;;;;;;;;;;5030585;28;20191;-31
2023/03/19 06:38:21;;;;;;;6.03;4.20;;;;;;;;;;5028918;28;20334;-35
2023/03/19 06:40:48;;;;;;;5.17;4.37;;;;;;;;;;5028102;28;20227;-32
2023/03/19 06:43:23;;;;;;;4.90;4.27;;;;;;;;;;5030481;28;20195;-35
2023/03/19 06:45:50;;;;;;;5.33;3.97;;;;;;;;;;5020311;28;20518;-32
2023/03/19 06:48:18;;;;;;;5.83;4.60;;;;;;;;;;5029849;28;20326;-33
2023/03/19 06:50:45;;;;;;;8.03;4.47;;;;;;;;;;5011611;28;20199;-33
2023/03/19 06:53:12;;;;;;;6.73;5.27;;;;;;;;;;5012732;28;20213;-35
2023/03/19 06:55:40;;;;;;;5.03;4.00;;;;;;;;;;5019705;28;20218;-31
2023/03/19 06:58:07;;;;;;;4.90;4.17;;;;;;;;;;5019052;28;20318;-30
2023/03/19 07:00:35;;;;;;;7.43;4.27;;;;;;;;;;5015251;28;20233;-36
2023/03/19 07:03:02;;;;;;;7.07;4.60;;;;;;;;;;5010959;28;20199;-35
2023/03/19 07:05:30;;;;;;;6.17;4.70;;;;;;;;;;5028084;28;20206;-30
2023/03/19 07:07:57;;;;;;;5.57;4.13;;;;;;;;;;5030362;28;20321;-34
2023/03/19 07:10:24;;;;;;;4.43;4.00;;;;;;;;;;5016716;28;20211;-36
2023/03/19 07:12:51;;;;;;;7.40;4.57;;;;;;;;;;5018554;28;20214;-34
2023/03/19 07:15:20;;;;;;;4.60;4.17;;;;;;;;;;5016608;28;20210;-35
2023/03/19 07:17:48;;;;;;;5.93;4.50;;;;;;;;;;5018227;28;20258;-31
2023/03/19 07:20:16;;;;;;;7.23;5.07;;;;;;;;;;5025577;28;20250;-32
2023/03/19 07:22:43;;;;;;;6.73;5.30;;;;;;;;;;5025965;28;20213;-32
2023/03/19 07:25:10;;;;;;;7.53;4.87;;;;;;;;;;5009739;28;20208;-37
2023/03/19 07:27:37;;;;;;;5.07;4.30;;;;;;;;;;5020315;28;20281;-31
2023/03/19 07:30:04;;;;;;;6.00;5.03;;;;;;;;;;5016465;28;20200;-34
2023/03/19 07:32:32;;;;;;;7.13;4.77;;;;;;;;;;5023541;28;20210;-34
2023/03/19 07:35:00;;;;;;;7.07;4.90;;;;;;;;;;5009425;28;20286;-33
2023/03/19 07:37:27;;;;;;;7.03;4.63;;;;;;;;;;5007754;28;20241;-35
2023/03/19 07:42:23;;;;;;;6.40;5.13;;;;;;;;;;5017750;28;20223;-28
2023/03/19 07:44:50;;;;;;;5.90;5.13;;;;;;;;;;5023191;28;20275;-27
2023/03/19 07:47:17;;;;;;;6.27;4.83;;;;;;;;;;5017923;28;20239;-27
2023/03/19 07:49:45;;;;;;;5.50;5.00;;;;;;;;;;5010678;28;20199;-29
2023/03/19 07:52:13;;;;;;;8.00;5.30;;;;;;;;;;5021370;28;20204;-26
2023/03/19 07:54:40;;;;;;;6.70;4.97;;;;;;;;;;5020364;28;20208;-26
2023/03/19 07:57:07;;;;;;;6.73;4.93;;;;;;;;;;5021884;28;20257;-26
2023/03/19 07:59:35;;;;;;;4.40;4.00;;;;;;;;;;5024795;28;20230;-27
2023/03/19 08:02:02;;;;;;;7.77;4.80;;;;;;;;;;5027281;28;20242;-27
2023/03/19 08:04:29;;;;;;;6.83;4.50;;;;;;;;;;5021047;28;20213;-29
2023/03/19 08:06:56;;;;;;;8.13;4.30;;;;;;;;;;5027411;28;20230;-28
2023/03/19 08:09:25;;;;;;;6.03;4.23;;;;;;;;;;5023834;28;20195;-26
2023/03/19 08:11:52;;;;;;;4.40;4.00;;;;;;;;;;5028706;28;20222;-28
2023/03/19 08:14:21;;;;;;;7.13;4.43;;;;;;;;;;5012323;28;20217;-29
2023/03/19 08:17:07;;;;;;;6.13;4.37;;;;;;;;;;5012925;28;20238;-26
2023/03/19 08:19:34;;;;;;;5.23;4.73;;;;;;;;;;5030351;28;20294;-26
2023/03/19 08:22:01;;;;;;;5.83;4.50;;;;;;;;;;5026486;28;20386;-29
2023/03/19 08:24:30;;;;;;;5.97;4.20;;;;;;;;;;5021167;28;20207;-29
2023/03/19 08:26:57;;;;;;;8.27;4.77;;;;;;;;;;5026419;28;20228;-28
2023/03/19 08:29:26;;;;;;;5.73;4.30;;;;;;;;;;5010822;28;20195;-28
2023/03/19 08:31:59;;;;;;;5.77;4.43;;;;;;;;;;5017837;28;20200;-27
2023/03/19 08:34:26;;;;;;;7.60;4.07;;;;;;;;;;5024834;28;20213;-29
2023/03/19 08:36:54;;;;;;;7.00;4.90;;;;;;;;;;5023614;28;20226;-26
2023/03/19 08:39:21;;;;;;;7.83;5.17;;;;;;;;;;5023148;28;20206;-27
2023/03/19 08:41:49;;;;;;;4.93;4.43;;;;;;;;;;5024007;28;20221;-29
2023/03/19 08:44:16;;;;;;;6.40;4.43;;;;;;;;;;5019833;28;20206;-28
2023/03/19 08:46:44;;;;;;;6.20;4.30;;;;;;;;;;5016328;28;20227;-27
2023/03/19 08:49:11;;;;;;;5.47;4.77;;;;;;;;;;5016953;28;20204;-27
2023/03/19 08:51:39;;;;;;;6.27;4.07;;;;;;;;;;5016147;28;20207;-26
2023/03/19 08:54:06;;;;;;;5.37;4.83;;;;;;;;;;5019008;28;20203;-29
2023/03/19 08:56:34;;;;;;;8.20;6.60;;;;;;;;;;5017662;28;20223;-29
2023/03/19 08:59:02;;;;;;;7.13;4.27;;;;;;;;;;5015447;28;20234;-30
2023/03/19 09:01:30;;;;;;;4.93;4.23;;;;;;;;;;5017801;28;20656;-28
2023/03/19 09:03:57;;;;;;;4.97;4.07;;;;;;;;;;5017961;28;20206;-26
2023/03/19 09:06:24;;;;;;;6.07;4.30;;;;;;;;;;5019864;28;20241;-27
2023/03/19 09:08:51;;;;;;;4.73;4.20;;;;;;;;;;5014849;28;20566;-26
2023/03/19 09:11:18;;;;;;;6.87;4.90;;;;;;;;;;5020463;28;20222;-28
2023/03/19 09:13:45;;;;;;;5.07;3.90;;;;;;;;;;5018397;28;20748;-27
2023/03/19 09:16:14;;;;;;;5.37;4.00;;;;;;;;;;5023177;28;20207;-29
2023/03/19 09:18:41;;;;;;;6.30;4.00;;;;;;;;;;5017014;28;20265;-28
2023/03/19 09:21:08;;;;;;;8.40;5.07;;;;;;;;;;5017981;28;20223;-28
2023/03/19 09:23:35;;;;;;;6.17;4.23;;;;;;;;;;5020371;28;20210;-29
2023/03/19 09:26:02;;;;;;;4.50;4.00;;;;;;;;;;5022178;28;20206;-29
2023/03/19 09:28:29;;;;;;;5.50;3.47;;;;;;;;;;5016666;28;20203;-27
2023/03/19 09:30:57;;;;;;;5.63;4.03;;;;;;;;;;5016351;28;20195;-25
2023/03/19 09:33:25;;;;;;;4.40;3.97;;;;;;;;;;5018602;28;20204;-28
2023/03/19 09:35:53;;;;;;;4.57;3.60;;;;;;;;;;5018150;28;20206;-27
2023/03/19 09:38:20;;;;;;;5.73;4.00;;;;;;;;;;5018712;28;20229;-27
2023/03/19 09:40:48;;;;;;;5.60;4.30;;;;;;;;;;5017299;28;20218;-28
2023/03/19 09:43:29;;;;;;;8.27;4.20;;;;;;;;;;5017028;28;20207;-30
2023/03/19 09:45:57;;;;;;;5.00;3.50;;;;;;;;;;5019059;28;20207;-30
2023/03/19 09:48:31;;;;;;;5.57;3.80;;;;;;;;;;5017932;28;20217;-29
2023/03/19 09:51:00;;;;;;;10.10;5.53;;;;;;;;;;5017391;28;20229;-45
2023/03/19 09:53:33;;;;;;;8.63;3.73;;;;;;;;;;5013789;28;20211;-33
2023/03/19 09:56:02;;;;;;;8.17;3.00;;;;;;;;;;5018781;28;20238;-32
2023/03/19 09:58:32;;;;;;;6.30;3.20;;;;;;;;;;5017496;28;20225;-37
2023/03/19 10:00:59;;;;;;;3.53;3.03;;;;;;;;;;5021452;28;20223;-35
2023/03/19 10:03:41;;;;;;;5.20;3.17;;;;;;;;;;5013240;28;20204;-37
2023/03/19 10:06:26;;;;;;;3.40;2.23;;;;;;;;;;5023627;28;20188;-33
2023/03/19 10:09:05;;;;;;;6.13;2.40;;;;;;;;;;5019752;28;20216;-36
2023/03/19 10:11:36;;;;;;;2.07;1.93;;;;;;;;;;5025512;28;20218;-39
2023/03/19 10:14:10;;;;;;;4.63;2.33;;;;;;;;;;5015853;28;20214;-34
2023/03/19 10:16:39;;;;;;;4.40;2.37;;;;;;;;;;5013380;28;20219;-35
2023/03/19 10:19:10;;;;;;;3.40;2.03;;;;;;;;;;5018327;28;20268;-35
2023/03/19 10:21:40;;;;;;;4.03;3.63;;;;;;;;;;5015212;28;20219;-39
2023/03/19 10:24:12;;;;;;;2.93;1.90;;;;;;;;;;5015377;28;20204;-37
2023/03/19 10:26:39;;;;;;;4.57;2.40;;;;;;;;;;5018234;28;20245;-36
2023/03/19 10:29:08;;;;;;;3.93;1.80;;;;;;;;;;5012365;28;20199;-36
2023/03/19 10:31:50;;;;;;;2.73;1.67;;;;;;;;;;5019034;28;20205;-36
2023/03/19 10:34:23;;;;;;;2.00;1.83;;;;;;;;;;5017396;28;20526;-38
2023/03/19 10:36:50;;;;;;;2.00;1.80;;;;;;;;;;5016187;28;20227;-36
2023/03/19 10:39:18;;;;;;;4.73;1.60;;;;;;;;;;5015359;28;20217;-38
2023/03/19 10:41:50;;;;;;;2.90;1.60;;;;;;;;;;5014663;28;20215;-39
2023/03/19 10:44:22;;;;;;;1.90;1.40;;;;;;;;;;5018032;28;20211;-37
2023/03/19 10:46:49;;;;;;;1.37;1.27;;;;;;;;;;5015743;28;20232;-32
2023/03/19 10:49:17;;;;;;;2.00;1.13;;;;;;;;;;5018109;28;20195;-33
2023/03/19 10:51:45;;;;;;;3.43;1.20;;;;;;;;;;5018472;28;20283;-37
2023/03/19 10:54:19;;;;;;;2.23;1.50;;;;;;;;;;5014991;28;20223;-38
2023/03/19 10:56:46;;;;;;;1.93;1.30;;;;;;;;;;5018169;28;20226;-36
2023/03/19 10:59:21;;;;;;;1.73;1.20;;;;;;;;;;5012675;28;20204;-40
2023/03/19 11:01:48;;;;;;;2.70;1.20;;;;;;;;;;5018039;28;20227;-35
2023/03/19 11:04:18;;;;;;;2.00;1.30;;;;;;;;;;5016183;28;20479;-33
2023/03/19 11:06:50;;;;;;;1.30;1.20;;;;;;;;;;5018478;28;20234;-33
2023/03/19 11:09:20;;;;;;;3.37;1.50;;;;;;;;;;5012760;28;20213;-35
2023/03/19 11:11:47;;;;;;;4.73;2.70;;;;;;;;;;5015741;28;20209;-36
2023/03/19 11:14:16;;;;;;;1.30;1.20;;;;;;;;;;5015052;28;20213;-40
2023/03/19 11:16:56;;;;;;;2.03;1.27;;;;;;;;;;5019303;28;20222;-36
2023/03/19 11:19:25;;;;;;;3.27;1.07;;;;;;;;;;5023426;28;20195;-37
2023/03/19 11:22:08;;;;;;;6.70;1.67;;;;;;;;;;5021419;28;20225;-37
2023/03/19 11:24:37;;;;;;;1.37;1.27;;;;;;;;;;5016160;28;20254;-36
2023/03/19 11:27:05;;;;;;;1.33;1.10;;;;;;;;;;5018697;28;20242;-37
2023/03/19 11:29:32;;;;;;;5.03;1.53;;;;;;;;;;5018102;28;20203;-38
2023/03/19 11:32:12;;;;;;;1.70;1.40;;;;;;;;;;5030824;28;20210;-31
2023/03/19 11:34:44;;;;;;;1.53;1.33;;;;;;;;;;5017823;28;20272;-39
2023/03/19 11:37:27;;;;;;;2.60;1.60;;;;;;;;;;5023543;28;20228;-39
2023/03/19 11:39:59;;;;;;;3.43;1.60;;;;;;;;;;5020214;28;20206;-34
2023/03/19 11:42:45;;;;;;;2.60;1.60;;;;;;;;;;5022149;28;20326;-30
2023/03/19 11:45:15;;;;;;;2.57;1.30;;;;;;;;;;5023296;28;20203;-29
2023/03/19 11:47:47;;;;;;;1.50;1.40;;;;;;;;;;5028399;28;20226;-34
2023/03/19 11:50:18;;;;;;;1.87;1.27;;;;;;;;;;5018477;28;20211;-38
2023/03/19 11:52:54;;;;;;;1.87;1.30;;;;;;;;;;5021335;28;20202;-34
2023/03/19 11:55:22;;;;;;;2.70;1.33;;;;;;;;;;5018390;28;20202;-33
2023/03/19 11:57:58;;;;;;;1.47;1.10;;;;;;;;;;5015813;28;20269;-38
2023/03/19 12:00:30;;;;;;;1.33;1.23;;;;;;;;;;5022778;28;20202;-34
2023/03/19 12:03:21;;;;;;;1.93;1.33;;;;;;;;;;5018541;28;20202;-34
2023/03/19 12:05:52;;;;;;;1.60;1.50;;;;;;;;;;5018173;28;20199;-33
2023/03/19 12:08:27;;;;;;;2.23;1.30;;;;;;;;;;5014926;28;20231;-37
2023/03/19 12:10:59;;;;;;;2.73;1.50;;;;;;;;;;5021560;28;20209;-36
2023/03/19 12:13:32;;;;;;;1.60;1.40;;;;;;;;;;5014615;28;20202;-40
2023/03/19 12:16:04;;;;;;;2.17;1.60;;;;;;;;;;5018916;28;20207;-33
2023/03/19 12:18:43;;;;;;;1.40;1.30;;;;;;;;;;5020019;28;20254;-34
2023/03/19 12:21:12;;;;;;;1.87;1.23;;;;;;;;;;5020809;28;20226;-39
2023/03/19 12:23:46;;;;;;;1.70;1.60;;;;;;;;;;5017820;28;20221;-32
2023/03/19 12:26:16;;;;;;;2.10;1.50;;;;;;;;;;5016631;28;20207;-37
2023/03/19 12:28:48;;;;;;;2.07;1.50;;;;;;;;;;5017984;28;20208;-39
2023/03/19 12:31:26;;;;;;;3.90;1.30;;;;;;;;;;5023337;28;20207;-37
2023/03/19 12:34:01;;;;;;;4.07;1.60;;;;;;;;;;5019765;28;20214;-36
2023/03/19 12:36:30;;;;;;;2.67;1.20;;;;;;;;;;5020411;28;20226;-33
2023/03/19 12:39:01;;;;;;;1.40;1.30;;;;;;;;;;5016415;28;20298;-29
2023/03/19 12:41:29;;;;;;;2.27;1.23;;;;;;;;;;5016449;28;20227;-40
2023/03/19 12:43:58;;;;;;;2.77;1.43;;;;;;;;;;5013065;28;20217;-33
2023/03/19 12:46:27;;;;;;;2.53;1.47;;;;;;;;;;5023209;28;20262;-33
2023/03/19 12:48:56;;;;;;;1.20;1.10;;;;;;;;;;5025606;28;20209;-39
2023/03/19 12:51:26;;;;;;;1.93;1.53;;;;;;;;;;5023185;28;20202;-38
2023/03/19 12:53:56;;;;;;;1.90;1.40;;;;;;;;;;5021845;28;20210;-38
2023/03/19 12:56:29;;;;;;;1.83;1.60;;;;;;;;;;5019825;28;20208;-37
2023/03/19 12:59:00;;;;;;;2.50;1.70;;;;;;;;;;5011657;28;20235;-35
2023/03/19 13:01:29;;;;;;;2.50;1.30;;;;;;;;;;5020008;28;20233;-36
2023/03/19 13:03:59;;;;;;;1.73;1.50;;;;;;;;;;5021280;28;20206;-37
2023/03/19 13:06:28;;;;;;;1.23;1.10;;;;;;;;;;5027429;28;20219;-39
2023/03/19 13:09:00;;;;;;;1.17;0.90;;;;;;;;;;5020577;28;20228;-38
2023/03/19 13:11:43;;;;;;;1.30;1.20;;;;;;;;;;5016302;28;20247;-37
2023/03/19 13:14:14;;;;;;;2.80;1.30;;;;;;;;;;5017495;28;20209;-39
2023/03/19 13:16:44;;;;;;;1.13;1.00;;;;;;;;;;5017971;28;20229;-36
2023/03/19 13:19:17;;;;;;;2.17;0.93;;;;;;;;;;5026442;28;20214;-38
2023/03/19 13:21:45;;;;;;;2.93;1.20;;;;;;;;;;5023948;28;20227;-34
2023/03/19 13:24:18;;;;;;;3.33;1.40;;;;;;;;;;5017743;28;20210;-37
2023/03/19 13:26:47;;;;;;;1.17;1.03;;;;;;;;;;5014346;28;20234;-36
2023/03/19 13:29:17;;;;;;;2.40;1.00;;;;;;;;;;5018592;28;20213;-40
2023/03/19 13:31:45;;;;;;;2.23;1.13;;;;;;;;;;5018718;28;20191;-38
2023/03/19 13:34:20;;;;;;;3.13;1.40;;;;;;;;;;5023483;28;20207;-34
2023/03/19 13:36:56;;;;;;;1.87;1.50;;;;;;;;;;5020609;28;20226;-38
2023/03/19 13:39:26;;;;;;;1.43;1.20;;;;;;;;;;5021998;28;20203;-38
2023/03/19 13:41:59;;;;;;;2.33;1.30;;;;;;;;;;5017568;28;20223;-32
2023/03/19 13:44:30;;;;;;;1.50;1.40;;;;;;;;;;5016998;28;20461;-33
2023/03/19 13:46:57;;;;;;;7.40;1.50;;;;;;;;;;5015606;28;20223;-41
2023/03/19 13:49:26;;;;;;;1.47;1.23;;;;;;;;;;5018141;28;20203;-35
2023/03/19 13:51:55;;;;;;;4.27;1.33;;;;;;;;;;5023450;28;20293;-32
2023/03/19 13:54:33;;;;;;;3.03;1.20;;;;;;;;;;5017527;28;20211;-32
2023/03/19 13:57:19;;;;;;;3.23;1.90;;;;;;;;;;5017570;28;20280;-34
2023/03/19 13:59:49;;;;;;;2.50;1.30;;;;;;;;;;5011645;28;20206;-34
2023/03/19 14:02:43;;;;;;;1.27;1.20;;;;;;;;;;5024336;28;20222;-34
2023/03/19 14:05:17;;;;;;;1.00;1.00;;;;;;;;;;4990322;28;20215;-35
2023/03/19 14:07:47;;;;;;;2.73;1.20;;;;;;;;;;5023047;28;20239;-36
2023/03/19 14:10:19;;;;;;;4.23;1.70;;;;;;;;;;5016745;28;20222;-40
2023/03/19 14:12:46;;;;;;;2.50;1.60;;;;;;;;;;5011473;28;20192;-33
2023/03/19 14:15:21;;;;;;;2.07;1.63;;;;;;;;;;5019060;28;20203;-35
2023/03/19 14:18:00;;;;;;;1.90;1.40;;;;;;;;;;5016390;28;20222;-36
2023/03/19 14:20:28;;;;;;;3.63;1.43;;;;;;;;;;5014074;28;20210;-31
2023/03/19 14:22:56;;;;;;;2.13;1.63;;;;;;;;;;5016285;28;20219;-34
2023/03/19 14:25:24;;;;;;;2.53;1.50;;;;;;;;;;5026100;28;20214;-36
2023/03/19 14:27:54;;;;;;;1.63;1.47;;;;;;;;;;5022687;28;20216;-34
2023/03/19 14:30:31;;;;;;;3.03;1.30;;;;;;;;;;5028383;28;20216;-32
2023/03/19 14:33:01;;;;;;;2.00;1.50;;;;;;;;;;5014945;28;20436;-35
2023/03/19 14:35:28;;;;;;;3.23;1.40;;;;;;;;;;5017591;28;20231;-34
2023/03/19 14:37:56;;;;;;;2.10;1.33;;;;;;;;;;5016568;28;20221;-33
2023/03/19 14:40:24;;;;;;;4.13;1.53;;;;;;;;;;5019662;28;20221;-40
2023/03/19 14:42:56;;;;;;;1.53;1.37;;;;;;;;;;5018603;28;20222;-36
2023/03/19 14:45:40;;;;;;;1.93;1.40;;;;;;;;;;5016898;28;20234;-33
2023/03/19 14:48:18;;;;;;;2.93;1.33;;;;;;;;;;5015325;28;20253;-38
2023/03/19 14:50:52;;;;;;;8.90;3.07;;;;;;;;;;5009460;28;20209;-34
2023/03/19 14:53:21;;;;;;;2.13;1.37;;;;;;;;;;5015405;28;20235;-33
2023/03/19 14:55:50;;;;;;;1.87;1.50;;;;;;;;;;5023012;28;20201;-34
2023/03/19 14:58:19;;;;;;;2.23;2.03;;;;;;;;;;5007268;28;20215;-37
2023/03/19 15:00:49;;;;;;;1.43;1.40;;;;;;;;;;5009770;28;20203;-32